sensor_id;sensor_type;location;lat;lon;timestamp;P1;durP1;ratioP1;P2;durP2;ratioP2
11608;SDS011;5860;52.018;8.536;2022-09-09T00:00:41;3.23;;;0.90;;
11608;SDS011;5860;52.018;8.536;2022-09-09T00:03:15;1.63;;;0.80;;
11608;SDS011;5860;52.018;8.536;2022-09-09T00:06:00;3.17;;;0.90;;
11608;SDS011;5860;52.018;8.536;2022-09-09T00:14:33;2.40;;;1.00;;
11608;SDS011;5860;52.018;8.536;2022-09-09T00:20:16;3.00;;;1.30;;
11608;SDS011;5860;52.018;8.536;2022-09-09T00:23:00;3.13;;;0.80;;
11608;SDS011;5860;52.018;8.536;2022-09-09T00:25:47;2.83;;;0.80;;
11608;SDS011;5860;52.018;8.536;2022-09-09T00:28:19;3.47;;;1.20;;
11608;SDS011;5860;52.018;8.536;2022-09-09T00:30:48;3.60;;;0.80;;
11608;SDS011;5860;52.018;8.536;2022-09-09T00:33:19;2.20;;;0.90;;
11608;SDS011;5860;52.018;8.536;2022-09-09T00:35:53;2.50;;;0.97;;
11608;SDS011;5860;52.018;8.536;2022-09-09T00:38:24;3.40;;;0.77;;
11608;SDS011;5860;52.018;8.536;2022-09-09T00:43:56;2.27;;;0.93;;
11608;SDS011;5860;52.018;8.536;2022-09-09T00:46:27;7.10;;;1.30;;
11608;SDS011;5860;52.018;8.536;2022-09-09T00:52:30;4.97;;;1.50;;
11608;SDS011;5860;52.018;8.536;2022-09-09T00:58:22;4.27;;;1.10;;
11608;SDS011;5860;52.018;8.536;2022-09-09T01:03:44;4.73;;;1.00;;
11608;SDS011;5860;52.018;8.536;2022-09-09T01:06:33;3.83;;;1.30;;
11608;SDS011;5860;52.018;8.536;2022-09-09T01:09:26;4.83;;;1.43;;
11608;SDS011;5860;52.018;8.536;2022-09-09T01:14:52;2.17;;;1.20;;
11608;SDS011;5860;52.018;8.536;2022-09-09T01:17:31;3.37;;;1.40;;
11608;SDS011;5860;52.018;8.536;2022-09-09T01:25:15;4.30;;;1.40;;
11608;SDS011;5860;52.018;8.536;2022-09-09T01:27:48;5.37;;;1.57;;
11608;SDS011;5860;52.018;8.536;2022-09-09T01:30:17;2.13;;;1.30;;
11608;SDS011;5860;52.018;8.536;2022-09-09T01:32:46;3.57;;;1.40;;
11608;SDS011;5860;52.018;8.536;2022-09-09T01:38:17;7.27;;;1.73;;
11608;SDS011;5860;52.018;8.536;2022-09-09T01:40:44;4.50;;;1.40;;
11608;SDS011;5860;52.018;8.536;2022-09-09T01:43:11;6.07;;;2.07;;
11608;SDS011;5860;52.018;8.536;2022-09-09T01:45:39;4.33;;;1.20;;
11608;SDS011;5860;52.018;8.536;2022-09-09T01:48:08;4.57;;;1.07;;
11608;SDS011;5860;52.018;8.536;2022-09-09T01:50:35;2.60;;;1.00;;
11608;SDS011;5860;52.018;8.536;2022-09-09T01:53:02;3.83;;;1.10;;
11608;SDS011;5860;52.018;8.536;2022-09-09T01:55:39;3.13;;;1.37;;
11608;SDS011;5860;52.018;8.536;2022-09-09T02:00:35;2.47;;;1.20;;
11608;SDS011;5860;52.018;8.536;2022-09-09T02:08:45;4.43;;;1.43;;
11608;SDS011;5860;52.018;8.536;2022-09-09T02:13:46;4.30;;;1.37;;
11608;SDS011;5860;52.018;8.536;2022-09-09T02:16:18;2.87;;;1.00;;
11608;SDS011;5860;52.018;8.536;2022-09-09T02:19:07;4.47;;;1.23;;
11608;SDS011;5860;52.018;8.536;2022-09-09T02:21:57;2.53;;;1.00;;
11608;SDS011;5860;52.018;8.536;2022-09-09T02:24:26;2.50;;;1.17;;
11608;SDS011;5860;52.018;8.536;2022-09-09T02:26:56;2.47;;;1.00;;
11608;SDS011;5860;52.018;8.536;2022-09-09T02:30:00;2.33;;;1.00;;
11608;SDS011;5860;52.018;8.536;2022-09-09T02:32:21;2.77;;;1.10;;
11608;SDS011;5860;52.018;8.536;2022-09-09T02:34:54;4.20;;;1.47;;
11608;SDS011;5860;52.018;8.536;2022-09-09T02:37:55;3.17;;;1.20;;
11608;SDS011;5860;52.018;8.536;2022-09-09T02:40:25;4.10;;;1.40;;
11608;SDS011;5860;52.018;8.536;2022-09-09T02:42:53;2.87;;;1.03;;
11608;SDS011;5860;52.018;8.536;2022-09-09T02:45:23;2.20;;;1.30;;
11608;SDS011;5860;52.018;8.536;2022-09-09T02:50:53;3.87;;;1.30;;
11608;SDS011;5860;52.018;8.536;2022-09-09T02:53:42;4.13;;;1.60;;
11608;SDS011;5860;52.018;8.536;2022-09-09T02:56:27;3.30;;;1.40;;
11608;SDS011;5860;52.018;8.536;2022-09-09T02:58:58;2.23;;;1.40;;
11608;SDS011;5860;52.018;8.536;2022-09-09T03:01:25;3.23;;;1.57;;
11608;SDS011;5860;52.018;8.536;2022-09-09T03:03:52;3.00;;;1.10;;
11608;SDS011;5860;52.018;8.536;2022-09-09T03:06:21;3.63;;;1.20;;
11608;SDS011;5860;52.018;8.536;2022-09-09T03:08:47;2.77;;;1.10;;
11608;SDS011;5860;52.018;8.536;2022-09-09T03:11:16;2.37;;;1.30;;
11608;SDS011;5860;52.018;8.536;2022-09-09T03:13:43;4.33;;;1.57;;
11608;SDS011;5860;52.018;8.536;2022-09-09T03:16:10;4.43;;;1.30;;
11608;SDS011;5860;52.018;8.536;2022-09-09T03:18:36;3.50;;;1.60;;
11608;SDS011;5860;52.018;8.536;2022-09-09T03:21:03;4.47;;;1.53;;
11608;SDS011;5860;52.018;8.536;2022-09-09T03:23:30;4.43;;;1.57;;
11608;SDS011;5860;52.018;8.536;2022-09-09T03:25:57;3.83;;;1.13;;
11608;SDS011;5860;52.018;8.536;2022-09-09T03:28:24;5.30;;;1.40;;
11608;SDS011;5860;52.018;8.536;2022-09-09T03:31:00;2.63;;;1.30;;
11608;SDS011;5860;52.018;8.536;2022-09-09T03:33:28;3.90;;;1.10;;
11608;SDS011;5860;52.018;8.536;2022-09-09T03:35:56;4.80;;;1.40;;
11608;SDS011;5860;52.018;8.536;2022-09-09T03:38:23;3.50;;;1.30;;
11608;SDS011;5860;52.018;8.536;2022-09-09T03:40:54;4.33;;;1.47;;
11608;SDS011;5860;52.018;8.536;2022-09-09T03:43:21;4.30;;;1.30;;
11608;SDS011;5860;52.018;8.536;2022-09-09T03:45:49;4.23;;;1.20;;
11608;SDS011;5860;52.018;8.536;2022-09-09T03:48:16;4.23;;;1.40;;
11608;SDS011;5860;52.018;8.536;2022-09-09T03:50:48;3.60;;;1.07;;
11608;SDS011;5860;52.018;8.536;2022-09-09T03:53:17;3.33;;;1.23;;
11608;SDS011;5860;52.018;8.536;2022-09-09T03:55:47;4.63;;;1.27;;
11608;SDS011;5860;52.018;8.536;2022-09-09T03:58:16;3.73;;;1.20;;
11608;SDS011;5860;52.018;8.536;2022-09-09T04:00:54;3.70;;;1.50;;
11608;SDS011;5860;52.018;8.536;2022-09-09T04:03:23;4.03;;;1.17;;
11608;SDS011;5860;52.018;8.536;2022-09-09T04:05:54;4.03;;;1.20;;
11608;SDS011;5860;52.018;8.536;2022-09-09T04:08:22;3.10;;;1.03;;
11608;SDS011;5860;52.018;8.536;2022-09-09T04:10:51;5.47;;;1.27;;
11608;SDS011;5860;52.018;8.536;2022-09-09T04:13:19;5.13;;;1.17;;
11608;SDS011;5860;52.018;8.536;2022-09-09T04:15:53;3.47;;;1.30;;
11608;SDS011;5860;52.018;8.536;2022-09-09T04:18:22;2.93;;;1.20;;
11608;SDS011;5860;52.018;8.536;2022-09-09T04:20:50;3.57;;;1.30;;
11608;SDS011;5860;52.018;8.536;2022-09-09T04:23:18;4.40;;;1.20;;
11608;SDS011;5860;52.018;8.536;2022-09-09T04:25:50;4.17;;;1.20;;
11608;SDS011;5860;52.018;8.536;2022-09-09T04:28:19;4.80;;;1.47;;
11608;SDS011;5860;52.018;8.536;2022-09-09T04:30:48;3.83;;;1.40;;
11608;SDS011;5860;52.018;8.536;2022-09-09T04:33:15;4.00;;;1.20;;
11608;SDS011;5860;52.018;8.536;2022-09-09T04:35:44;6.80;;;1.70;;
11608;SDS011;5860;52.018;8.536;2022-09-09T04:38:12;4.03;;;1.97;;
11608;SDS011;5860;52.018;8.536;2022-09-09T04:40:38;6.33;;;1.77;;
11608;SDS011;5860;52.018;8.536;2022-09-09T04:43:09;6.23;;;1.70;;
11608;SDS011;5860;52.018;8.536;2022-09-09T04:45:40;4.20;;;1.37;;
11608;SDS011;5860;52.018;8.536;2022-09-09T04:48:07;2.87;;;1.23;;
11608;SDS011;5860;52.018;8.536;2022-09-09T04:50:35;3.90;;;2.00;;
11608;SDS011;5860;52.018;8.536;2022-09-09T04:53:02;2.87;;;1.60;;
11608;SDS011;5860;52.018;8.536;2022-09-09T04:55:31;4.07;;;1.50;;
11608;SDS011;5860;52.018;8.536;2022-09-09T04:58:03;6.30;;;2.00;;
11608;SDS011;5860;52.018;8.536;2022-09-09T05:00:31;4.13;;;1.40;;
11608;SDS011;5860;52.018;8.536;2022-09-09T05:03:02;5.20;;;1.83;;
11608;SDS011;5860;52.018;8.536;2022-09-09T05:05:30;5.13;;;2.13;;
11608;SDS011;5860;52.018;8.536;2022-09-09T05:08:02;4.97;;;2.17;;
11608;SDS011;5860;52.018;8.536;2022-09-09T05:10:29;5.50;;;2.20;;
11608;SDS011;5860;52.018;8.536;2022-09-09T05:12:56;4.90;;;1.90;;
11608;SDS011;5860;52.018;8.536;2022-09-09T05:15:23;5.70;;;1.87;;
11608;SDS011;5860;52.018;8.536;2022-09-09T05:17:50;4.87;;;1.90;;
11608;SDS011;5860;52.018;8.536;2022-09-09T05:20:18;3.83;;;1.90;;
11608;SDS011;5860;52.018;8.536;2022-09-09T05:22:45;5.47;;;2.10;;
11608;SDS011;5860;52.018;8.536;2022-09-09T05:25:12;7.13;;;2.20;;
11608;SDS011;5860;52.018;8.536;2022-09-09T05:27:39;5.47;;;2.17;;
11608;SDS011;5860;52.018;8.536;2022-09-09T05:30:06;4.97;;;2.17;;
11608;SDS011;5860;52.018;8.536;2022-09-09T05:32:34;4.67;;;2.07;;
11608;SDS011;5860;52.018;8.536;2022-09-09T05:35:00;6.17;;;1.93;;
11608;SDS011;5860;52.018;8.536;2022-09-09T05:37:27;5.27;;;1.80;;
11608;SDS011;5860;52.018;8.536;2022-09-09T05:39:56;5.10;;;2.30;;
11608;SDS011;5860;52.018;8.536;2022-09-09T05:42:24;4.27;;;1.83;;
11608;SDS011;5860;52.018;8.536;2022-09-09T05:44:50;5.63;;;1.90;;
11608;SDS011;5860;52.018;8.536;2022-09-09T05:47:20;3.53;;;1.63;;
11608;SDS011;5860;52.018;8.536;2022-09-09T05:49:47;1.63;;;1.30;;
11608;SDS011;5860;52.018;8.536;2022-09-09T05:52:14;4.10;;;1.67;;
11608;SDS011;5860;52.018;8.536;2022-09-09T05:54:41;6.57;;;1.70;;
11608;SDS011;5860;52.018;8.536;2022-09-09T05:57:09;4.77;;;1.60;;
11608;SDS011;5860;52.018;8.536;2022-09-09T05:59:36;3.73;;;1.53;;
11608;SDS011;5860;52.018;8.536;2022-09-09T06:02:03;4.17;;;1.40;;
11608;SDS011;5860;52.018;8.536;2022-09-09T06:04:30;4.47;;;1.60;;
11608;SDS011;5860;52.018;8.536;2022-09-09T06:06:57;3.50;;;1.30;;
11608;SDS011;5860;52.018;8.536;2022-09-09T06:09:24;4.63;;;1.20;;
11608;SDS011;5860;52.018;8.536;2022-09-09T06:11:51;4.77;;;1.47;;
11608;SDS011;5860;52.018;8.536;2022-09-09T06:14:18;6.45;;;1.65;;
11608;SDS011;5860;52.018;8.536;2022-09-09T06:16:45;5.47;;;1.90;;
11608;SDS011;5860;52.018;8.536;2022-09-09T06:19:12;2.28;;;1.10;;
11608;SDS011;5860;52.018;8.536;2022-09-09T06:21:39;3.53;;;1.73;;
11608;SDS011;5860;52.018;8.536;2022-09-09T06:24:06;5.38;;;1.38;;
11608;SDS011;5860;52.018;8.536;2022-09-09T06:26:37;3.80;;;1.33;;
11608;SDS011;5860;52.018;8.536;2022-09-09T06:29:08;4.40;;;1.52;;
11608;SDS011;5860;52.018;8.536;2022-09-09T06:31:35;6.80;;;1.50;;
11608;SDS011;5860;52.018;8.536;2022-09-09T06:34:06;3.78;;;1.30;;
11608;SDS011;5860;52.018;8.536;2022-09-09T06:36:35;2.45;;;1.15;;
11608;SDS011;5860;52.018;8.536;2022-09-09T06:39:03;4.03;;;1.40;;
11608;SDS011;5860;52.018;8.536;2022-09-09T06:41:36;3.83;;;1.23;;
11608;SDS011;5860;52.018;8.536;2022-09-09T06:44:04;3.15;;;1.30;;
11608;SDS011;5860;52.018;8.536;2022-09-09T06:46:31;3.42;;;1.20;;
11608;SDS011;5860;52.018;8.536;2022-09-09T06:48:59;2.53;;;1.10;;
11608;SDS011;5860;52.018;8.536;2022-09-09T06:51:30;2.05;;;1.00;;
11608;SDS011;5860;52.018;8.536;2022-09-09T06:54:00;3.53;;;1.20;;
11608;SDS011;5860;52.018;8.536;2022-09-09T06:56:32;5.07;;;1.30;;
11608;SDS011;5860;52.018;8.536;2022-09-09T06:59:04;4.75;;;1.48;;
11608;SDS011;5860;52.018;8.536;2022-09-09T07:01:41;4.65;;;1.73;;
11608;SDS011;5860;52.018;8.536;2022-09-09T07:04:17;3.13;;;1.27;;
11608;SDS011;5860;52.018;8.536;2022-09-09T07:06:45;3.13;;;1.10;;
11608;SDS011;5860;52.018;8.536;2022-09-09T07:09:13;2.15;;;1.10;;
11608;SDS011;5860;52.018;8.536;2022-09-09T07:11:43;6.13;;;1.60;;
11608;SDS011;5860;52.018;8.536;2022-09-09T07:14:12;5.60;;;1.52;;
11608;SDS011;5860;52.018;8.536;2022-09-09T07:16:43;4.03;;;1.33;;
11608;SDS011;5860;52.018;8.536;2022-09-09T07:19:11;4.70;;;1.30;;
11608;SDS011;5860;52.018;8.536;2022-09-09T07:21:40;5.38;;;1.70;;
11608;SDS011;5860;52.018;8.536;2022-09-09T07:24:08;2.25;;;1.33;;
11608;SDS011;5860;52.018;8.536;2022-09-09T07:26:37;5.03;;;1.30;;
11608;SDS011;5860;52.018;8.536;2022-09-09T07:29:05;3.83;;;1.10;;
11608;SDS011;5860;52.018;8.536;2022-09-09T07:31:33;7.13;;;1.50;;
11608;SDS011;5860;52.018;8.536;2022-09-09T07:34:03;3.90;;;1.67;;
11608;SDS011;5860;52.018;8.536;2022-09-09T07:36:31;6.07;;;1.70;;
11608;SDS011;5860;52.018;8.536;2022-09-09T07:39:01;9.10;;;2.13;;
11608;SDS011;5860;52.018;8.536;2022-09-09T07:41:42;4.72;;;1.45;;
11608;SDS011;5860;52.018;8.536;2022-09-09T07:44:14;5.97;;;1.53;;
11608;SDS011;5860;52.018;8.536;2022-09-09T07:46:42;4.40;;;1.60;;
11608;SDS011;5860;52.018;8.536;2022-09-09T07:49:11;5.10;;;1.70;;
11608;SDS011;5860;52.018;8.536;2022-09-09T07:51:40;3.33;;;1.30;;
11608;SDS011;5860;52.018;8.536;2022-09-09T07:54:10;3.60;;;1.47;;
11608;SDS011;5860;52.018;8.536;2022-09-09T07:56:38;3.22;;;1.15;;
11608;SDS011;5860;52.018;8.536;2022-09-09T07:59:07;5.27;;;1.53;;
11608;SDS011;5860;52.018;8.536;2022-09-09T08:01:42;6.22;;;1.60;;
11608;SDS011;5860;52.018;8.536;2022-09-09T08:04:12;4.40;;;1.50;;
11608;SDS011;5860;52.018;8.536;2022-09-09T08:06:46;4.85;;;1.80;;
11608;SDS011;5860;52.018;8.536;2022-09-09T08:09:20;4.97;;;1.40;;
11608;SDS011;5860;52.018;8.536;2022-09-09T08:11:47;3.87;;;1.50;;
11608;SDS011;5860;52.018;8.536;2022-09-09T08:14:14;7.05;;;1.65;;
11608;SDS011;5860;52.018;8.536;2022-09-09T08:16:42;3.38;;;1.40;;
11608;SDS011;5860;52.018;8.536;2022-09-09T08:19:11;5.55;;;1.52;;
11608;SDS011;5860;52.018;8.536;2022-09-09T08:21:39;4.10;;;1.30;;
11608;SDS011;5860;52.018;8.536;2022-09-09T08:24:07;4.03;;;1.17;;
11608;SDS011;5860;52.018;8.536;2022-09-09T08:26:37;2.85;;;1.33;;
11608;SDS011;5860;52.018;8.536;2022-09-09T08:29:09;4.82;;;1.52;;
11608;SDS011;5860;52.018;8.536;2022-09-09T08:31:43;4.30;;;1.40;;
11608;SDS011;5860;52.018;8.536;2022-09-09T08:34:21;7.00;;;1.55;;
11608;SDS011;5860;52.018;8.536;2022-09-09T08:36:48;3.47;;;1.60;;
11608;SDS011;5860;52.018;8.536;2022-09-09T08:39:17;2.70;;;1.10;;
11608;SDS011;5860;52.018;8.536;2022-09-09T08:50:36;3.72;;;1.50;;
11608;SDS011;5860;52.018;8.536;2022-09-09T08:55:45;5.50;;;1.35;;
11608;SDS011;5860;52.018;8.536;2022-09-09T08:58:23;4.18;;;1.52;;
11608;SDS011;5860;52.018;8.536;2022-09-09T09:03:42;6.25;;;1.30;;
11608;SDS011;5860;52.018;8.536;2022-09-09T09:11:38;5.28;;;1.60;;
11608;SDS011;5860;52.018;8.536;2022-09-09T09:14:12;3.25;;;1.10;;
11608;SDS011;5860;52.018;8.536;2022-09-09T09:19:16;4.75;;;1.35;;
11608;SDS011;5860;52.018;8.536;2022-09-09T09:21:45;4.78;;;1.13;;
11608;SDS011;5860;52.018;8.536;2022-09-09T09:24:21;3.42;;;1.20;;
11608;SDS011;5860;52.018;8.536;2022-09-09T09:26:53;3.20;;;1.17;;
11608;SDS011;5860;52.018;8.536;2022-09-09T09:29:20;2.80;;;1.08;;
11608;SDS011;5860;52.018;8.536;2022-09-09T09:31:52;3.33;;;1.10;;
11608;SDS011;5860;52.018;8.536;2022-09-09T09:34:21;3.47;;;1.00;;
11608;SDS011;5860;52.018;8.536;2022-09-09T09:36:54;5.10;;;1.48;;
11608;SDS011;5860;52.018;8.536;2022-09-09T09:39:24;3.13;;;1.10;;
11608;SDS011;5860;52.018;8.536;2022-09-09T09:42:13;3.70;;;1.25;;
11608;SDS011;5860;52.018;8.536;2022-09-09T09:44:48;8.15;;;1.30;;
11608;SDS011;5860;52.018;8.536;2022-09-09T09:47:16;5.97;;;1.67;;
11608;SDS011;5860;52.018;8.536;2022-09-09T09:49:56;4.15;;;1.10;;
11608;SDS011;5860;52.018;8.536;2022-09-09T09:52:29;2.92;;;1.65;;
11608;SDS011;5860;52.018;8.536;2022-09-09T09:54:58;3.70;;;1.20;;
11608;SDS011;5860;52.018;8.536;2022-09-09T09:57:33;4.25;;;1.27;;
11608;SDS011;5860;52.018;8.536;2022-09-09T10:02:45;3.65;;;1.15;;
11608;SDS011;5860;52.018;8.536;2022-09-09T10:08:02;3.78;;;1.15;;
11608;SDS011;5860;52.018;8.536;2022-09-09T10:19:06;5.07;;;1.02;;
11608;SDS011;5860;52.018;8.536;2022-09-09T10:21:59;5.05;;;1.30;;
11608;SDS011;5860;52.018;8.536;2022-09-09T10:32:45;3.03;;;1.10;;
11608;SDS011;5860;52.018;8.536;2022-09-09T10:35:33;4.28;;;1.20;;
11608;SDS011;5860;52.018;8.536;2022-09-09T10:38:59;7.03;;;1.45;;
11608;SDS011;5860;52.018;8.536;2022-09-09T10:52:18;4.80;;;1.30;;
11608;SDS011;5860;52.018;8.536;2022-09-09T10:55:10;5.65;;;1.67;;
11608;SDS011;5860;52.018;8.536;2022-09-09T10:57:48;5.38;;;1.52;;
11608;SDS011;5860;52.018;8.536;2022-09-09T11:00:19;4.07;;;1.58;;
11608;SDS011;5860;52.018;8.536;2022-09-09T11:02:55;5.60;;;1.30;;
11608;SDS011;5860;52.018;8.536;2022-09-09T11:05:44;4.80;;;1.40;;
11608;SDS011;5860;52.018;8.536;2022-09-09T11:08:19;4.47;;;1.20;;
11608;SDS011;5860;52.018;8.536;2022-09-09T11:11:03;5.00;;;1.58;;
11608;SDS011;5860;52.018;8.536;2022-09-09T11:19:14;4.72;;;1.10;;
11608;SDS011;5860;52.018;8.536;2022-09-09T11:21:43;4.38;;;1.30;;
11608;SDS011;5860;52.018;8.536;2022-09-09T11:32:24;2.85;;;1.20;;
11608;SDS011;5860;52.018;8.536;2022-09-09T11:40:47;6.78;;;1.67;;
11608;SDS011;5860;52.018;8.536;2022-09-09T11:45:54;3.75;;;1.20;;
11608;SDS011;5860;52.018;8.536;2022-09-09T11:48:40;4.30;;;1.15;;
11608;SDS011;5860;52.018;8.536;2022-09-09T11:51:12;4.13;;;1.25;;
11608;SDS011;5860;52.018;8.536;2022-09-09T11:56:57;5.00;;;1.27;;
11608;SDS011;5860;52.018;8.536;2022-09-09T12:02:02;4.43;;;1.10;;
11608;SDS011;5860;52.018;8.536;2022-09-09T12:04:46;4.10;;;1.15;;
11608;SDS011;5860;52.018;8.536;2022-09-09T12:10:28;3.22;;;1.02;;
11608;SDS011;5860;52.018;8.536;2022-09-09T12:15:52;3.42;;;1.00;;
11608;SDS011;5860;52.018;8.536;2022-09-09T12:18:33;4.03;;;1.00;;
11608;SDS011;5860;52.018;8.536;2022-09-09T12:23:57;3.45;;;1.00;;
11608;SDS011;5860;52.018;8.536;2022-09-09T12:26:34;2.50;;;0.73;;
11608;SDS011;5860;52.018;8.536;2022-09-09T12:32:23;3.10;;;1.02;;
11608;SDS011;5860;52.018;8.536;2022-09-09T12:34:55;4.40;;;1.00;;
11608;SDS011;5860;52.018;8.536;2022-09-09T12:40:26;5.80;;;1.15;;
11608;SDS011;5860;52.018;8.536;2022-09-09T12:42:58;4.95;;;1.10;;
11608;SDS011;5860;52.018;8.536;2022-09-09T12:45:31;3.33;;;0.90;;
11608;SDS011;5860;52.018;8.536;2022-09-09T12:48:08;3.03;;;0.90;;
11608;SDS011;5860;52.018;8.536;2022-09-09T12:50:45;1.77;;;0.82;;
11608;SDS011;5860;52.018;8.536;2022-09-09T12:53:25;1.52;;;0.75;;
11608;SDS011;5860;52.018;8.536;2022-09-09T12:55:57;2.95;;;0.80;;
11608;SDS011;5860;52.018;8.536;2022-09-09T12:58:29;3.20;;;1.10;;
11608;SDS011;5860;52.018;8.536;2022-09-09T13:01:02;5.43;;;1.23;;
11608;SDS011;5860;52.018;8.536;2022-09-09T13:03:33;3.22;;;1.00;;
11608;SDS011;5860;52.018;8.536;2022-09-09T13:06:13;3.33;;;0.90;;
11608;SDS011;5860;52.018;8.536;2022-09-09T13:08:54;4.03;;;1.15;;
11608;SDS011;5860;52.018;8.536;2022-09-09T13:11:24;3.42;;;1.10;;
11608;SDS011;5860;52.018;8.536;2022-09-09T13:14:04;4.28;;;1.00;;
11608;SDS011;5860;52.018;8.536;2022-09-09T13:16:33;4.28;;;1.38;;
11608;SDS011;5860;52.018;8.536;2022-09-09T13:19:08;1.52;;;0.65;;
11608;SDS011;5860;52.018;8.536;2022-09-09T13:21:42;3.88;;;1.20;;
11608;SDS011;5860;52.018;8.536;2022-09-09T13:24:27;6.18;;;0.82;;
11608;SDS011;5860;52.018;8.536;2022-09-09T13:27:03;3.85;;;1.20;;
11608;SDS011;5860;52.018;8.536;2022-09-09T13:29:53;5.13;;;1.00;;
11608;SDS011;5860;52.018;8.536;2022-09-09T13:32:22;4.13;;;1.08;;
11608;SDS011;5860;52.018;8.536;2022-09-09T13:34:51;2.55;;;0.80;;
11608;SDS011;5860;52.018;8.536;2022-09-09T13:37:36;5.80;;;1.48;;
11608;SDS011;5860;52.018;8.536;2022-09-09T13:40:05;3.83;;;1.08;;
11608;SDS011;5860;52.018;8.536;2022-09-09T13:42:34;5.72;;;1.17;;
11608;SDS011;5860;52.018;8.536;2022-09-09T13:45:14;2.58;;;0.65;;
11608;SDS011;5860;52.018;8.536;2022-09-09T13:47:50;1.73;;;0.65;;
11608;SDS011;5860;52.018;8.536;2022-09-09T13:52:53;2.53;;;0.70;;
11608;SDS011;5860;52.018;8.536;2022-09-09T13:55:22;1.60;;;0.70;;
11608;SDS011;5860;52.018;8.536;2022-09-09T14:00:18;1.80;;;0.60;;
11608;SDS011;5860;52.018;8.536;2022-09-09T14:02:47;4.68;;;0.95;;
11608;SDS011;5860;52.018;8.536;2022-09-09T14:05:15;1.98;;;0.77;;
11608;SDS011;5860;52.018;8.536;2022-09-09T14:07:42;1.48;;;0.52;;
11608;SDS011;5860;52.018;8.536;2022-09-09T14:10:10;2.10;;;0.82;;
11608;SDS011;5860;52.018;8.536;2022-09-09T14:12:38;3.60;;;1.10;;
11608;SDS011;5860;52.018;8.536;2022-09-09T14:15:06;1.88;;;0.60;;
11608;SDS011;5860;52.018;8.536;2022-09-09T14:17:35;2.10;;;0.77;;
11608;SDS011;5860;52.018;8.536;2022-09-09T14:20:03;2.88;;;0.77;;
11608;SDS011;5860;52.018;8.536;2022-09-09T14:22:35;2.53;;;1.00;;
11608;SDS011;5860;52.018;8.536;2022-09-09T14:25:03;3.08;;;0.90;;
11608;SDS011;5860;52.018;8.536;2022-09-09T14:27:30;2.63;;;0.85;;
11608;SDS011;5860;52.018;8.536;2022-09-09T14:29:57;4.05;;;0.90;;
11608;SDS011;5860;52.018;8.536;2022-09-09T14:32:26;2.92;;;0.77;;
11608;SDS011;5860;52.018;8.536;2022-09-09T14:34:53;1.27;;;0.60;;
11608;SDS011;5860;52.018;8.536;2022-09-09T14:37:20;2.63;;;0.70;;
11608;SDS011;5860;52.018;8.536;2022-09-09T14:39:47;1.80;;;0.57;;
11608;SDS011;5860;52.018;8.536;2022-09-09T14:42:17;1.58;;;0.73;;
11608;SDS011;5860;52.018;8.536;2022-09-09T14:44:44;2.17;;;0.95;;
11608;SDS011;5860;52.018;8.536;2022-09-09T14:47:11;2.88;;;0.90;;
11608;SDS011;5860;52.018;8.536;2022-09-09T14:49:37;1.20;;;0.75;;
11608;SDS011;5860;52.018;8.536;2022-09-09T14:52:08;2.58;;;0.93;;
11608;SDS011;5860;52.018;8.536;2022-09-09T14:54:35;2.80;;;0.90;;
11608;SDS011;5860;52.018;8.536;2022-09-09T14:57:03;2.25;;;1.02;;
11608;SDS011;5860;52.018;8.536;2022-09-09T14:59:29;1.70;;;0.88;;
11608;SDS011;5860;52.018;8.536;2022-09-09T15:01:56;3.53;;;0.90;;
11608;SDS011;5860;52.018;8.536;2022-09-09T15:04:23;4.30;;;0.77;;
11608;SDS011;5860;52.018;8.536;2022-09-09T15:06:50;2.22;;;0.98;;
11608;SDS011;5860;52.018;8.536;2022-09-09T15:09:19;2.63;;;0.95;;
11608;SDS011;5860;52.018;8.536;2022-09-09T15:11:46;3.72;;;0.75;;
11608;SDS011;5860;52.018;8.536;2022-09-09T15:14:13;2.60;;;1.02;;
11608;SDS011;5860;52.018;8.536;2022-09-09T15:16:39;1.13;;;0.60;;
11608;SDS011;5860;52.018;8.536;2022-09-09T15:19:06;3.60;;;0.80;;
11608;SDS011;5860;52.018;8.536;2022-09-09T15:21:34;2.22;;;0.90;;
11608;SDS011;5860;52.018;8.536;2022-09-09T15:24:03;1.23;;;0.60;;
11608;SDS011;5860;52.018;8.536;2022-09-09T15:26:30;2.75;;;1.10;;
11608;SDS011;5860;52.018;8.536;2022-09-09T15:28:57;3.50;;;0.75;;
11608;SDS011;5860;52.018;8.536;2022-09-09T15:31:26;4.25;;;1.02;;
11608;SDS011;5860;52.018;8.536;2022-09-09T15:33:58;3.67;;;0.93;;
11608;SDS011;5860;52.018;8.536;2022-09-09T15:38:54;1.50;;;0.80;;
11608;SDS011;5860;52.018;8.536;2022-09-09T15:41:22;2.92;;;1.13;;
11608;SDS011;5860;52.018;8.536;2022-09-09T15:43:50;3.03;;;1.10;;
11608;SDS011;5860;52.018;8.536;2022-09-09T15:46:23;2.70;;;0.90;;
11608;SDS011;5860;52.018;8.536;2022-09-09T15:48:53;4.40;;;0.90;;
11608;SDS011;5860;52.018;8.536;2022-09-09T15:51:22;4.32;;;0.98;;
11608;SDS011;5860;52.018;8.536;2022-09-09T15:54:07;4.68;;;1.25;;
11608;SDS011;5860;52.018;8.536;2022-09-09T15:56:36;2.92;;;0.85;;
11608;SDS011;5860;52.018;8.536;2022-09-09T15:59:03;2.58;;;1.02;;
11608;SDS011;5860;52.018;8.536;2022-09-09T16:01:30;3.42;;;1.15;;
11608;SDS011;5860;52.018;8.536;2022-09-09T16:03:58;2.63;;;1.05;;
11608;SDS011;5860;52.018;8.536;2022-09-09T16:06:27;3.63;;;1.00;;
11608;SDS011;5860;52.018;8.536;2022-09-09T16:08:55;4.05;;;1.17;;
11608;SDS011;5860;52.018;8.536;2022-09-09T16:11:29;2.05;;;1.02;;
11608;SDS011;5860;52.018;8.536;2022-09-09T16:13:58;3.65;;;1.25;;
11608;SDS011;5860;52.018;8.536;2022-09-09T16:16:27;4.93;;;1.40;;
11608;SDS011;5860;52.018;8.536;2022-09-09T16:18:58;2.67;;;1.08;;
11608;SDS011;5860;52.018;8.536;2022-09-09T16:21:28;3.60;;;1.63;;
11608;SDS011;5860;52.018;8.536;2022-09-09T16:23:59;8.77;;;1.58;;
11608;SDS011;5860;52.018;8.536;2022-09-09T16:26:27;4.80;;;2.40;;
11608;SDS011;5860;52.018;8.536;2022-09-09T16:28:57;5.38;;;2.10;;
11608;SDS011;5860;52.018;8.536;2022-09-09T16:31:25;4.80;;;1.90;;
11608;SDS011;5860;52.018;8.536;2022-09-09T16:33:53;4.47;;;2.15;;
11608;SDS011;5860;52.018;8.536;2022-09-09T16:38:54;3.08;;;1.05;;
11608;SDS011;5860;52.018;8.536;2022-09-09T16:41:24;3.28;;;1.20;;
11608;SDS011;5860;52.018;8.536;2022-09-09T16:43:52;3.72;;;1.10;;
11608;SDS011;5860;52.018;8.536;2022-09-09T16:46:21;3.88;;;0.98;;
11608;SDS011;5860;52.018;8.536;2022-09-09T16:48:51;2.08;;;0.93;;
11608;SDS011;5860;52.018;8.536;2022-09-09T16:51:19;2.45;;;1.00;;
11608;SDS011;5860;52.018;8.536;2022-09-09T16:54:10;1.83;;;0.93;;
11608;SDS011;5860;52.018;8.536;2022-09-09T16:56:41;2.67;;;1.13;;
11608;SDS011;5860;52.018;8.536;2022-09-09T16:59:13;2.07;;;0.80;;
11608;SDS011;5860;52.018;8.536;2022-09-09T17:01:42;3.83;;;1.20;;
11608;SDS011;5860;52.018;8.536;2022-09-09T17:04:14;3.10;;;0.85;;
11608;SDS011;5860;52.018;8.536;2022-09-09T17:06:47;3.00;;;1.15;;
11608;SDS011;5860;52.018;8.536;2022-09-09T17:09:18;4.72;;;1.00;;
11608;SDS011;5860;52.018;8.536;2022-09-09T17:11:46;3.03;;;1.00;;
11608;SDS011;5860;52.018;8.536;2022-09-09T17:14:17;3.45;;;1.23;;
11608;SDS011;5860;52.018;8.536;2022-09-09T17:16:45;3.77;;;0.97;;
11608;SDS011;5860;52.018;8.536;2022-09-09T17:19:13;3.33;;;1.20;;
11608;SDS011;5860;52.018;8.536;2022-09-09T17:21:40;2.20;;;0.90;;
11608;SDS011;5860;52.018;8.536;2022-09-09T17:24:27;1.87;;;0.90;;
11608;SDS011;5860;52.018;8.536;2022-09-09T17:26:55;3.20;;;1.10;;
11608;SDS011;5860;52.018;8.536;2022-09-09T17:29:23;5.10;;;2.63;;
11608;SDS011;5860;52.018;8.536;2022-09-09T17:31:51;3.10;;;2.03;;
11608;SDS011;5860;52.018;8.536;2022-09-09T17:34:18;4.77;;;2.00;;
11608;SDS011;5860;52.018;8.536;2022-09-09T17:36:45;4.60;;;1.40;;
11608;SDS011;5860;52.018;8.536;2022-09-09T17:39:12;4.30;;;1.60;;
11608;SDS011;5860;52.018;8.536;2022-09-09T17:41:39;2.70;;;1.50;;
11608;SDS011;5860;52.018;8.536;2022-09-09T17:44:07;6.50;;;1.63;;
11608;SDS011;5860;52.018;8.536;2022-09-09T17:46:37;4.17;;;1.20;;
11608;SDS011;5860;52.018;8.536;2022-09-09T17:49:10;3.20;;;1.17;;
11608;SDS011;5860;52.018;8.536;2022-09-09T17:51:41;1.63;;;0.70;;
11608;SDS011;5860;52.018;8.536;2022-09-09T17:54:13;3.27;;;1.33;;
11608;SDS011;5860;52.018;8.536;2022-09-09T17:56:42;2.03;;;0.90;;
11608;SDS011;5860;52.018;8.536;2022-09-09T17:59:11;2.63;;;0.80;;